ARG1437 SAMR-SABE
Flight info
| Callsign | ARG1437 |
|---|---|
| Flight time | 1h 15m |
| Altitude | 35000 |
| Route | ISELU UM424 ASADA ASADA9R |
| Aircraft | B38M/M-SDE1FGHILORVWXY/HB1 |
Departure
| Time | 2026-05-08 20:32 |
|---|---|
| Airport | Suboficial Ay Santiago Germano Airport (SAMR) |
Arrival
| Time | 2026-05-08 21:48 |
|---|---|
| Airport | Aeroparque Jorge Newbery (SABE) |
| Time | Latitude | Longitude | Altitude | Speed | Heading |
|---|---|---|---|---|---|
| 2026-05-08 20:14 | -34.59055 | -68.40108 | 2459 ft | 0 kts | 200° |
| 2026-05-08 20:19 | -34.59054 | -68.40108 | 2460 ft | 0 kts | 200° |
| 2026-05-08 20:25 | -34.59054 | -68.40107 | 2456 ft | 0 kts | 200° |
| 2026-05-08 20:26 | -34.59055 | -68.40107 | 2456 ft | 1 kts | 193° |
| 2026-05-08 20:26 | -34.59059 | -68.40103 | 2461 ft | 1 kts | 144° |
| 2026-05-08 20:27 | -34.59058 | -68.40094 | 2459 ft | 3 kts | 91° |
| 2026-05-08 20:27 | -34.59049 | -68.40085 | 2458 ft | 3 kts | 20° |
| 2026-05-08 20:27 | -34.59009 | -68.40075 | 2463 ft | 9 kts | 26° |
| 2026-05-08 20:27 | -34.58931 | -68.40031 | 2457 ft | 16 kts | 16° |
| 2026-05-08 20:28 | -34.58858 | -68.40076 | 2461 ft | 13 kts | 288° |
| 2026-05-08 20:28 | -34.58829 | -68.40180 | 2463 ft | 13 kts | 289° |
| 2026-05-08 20:28 | -34.58799 | -68.40285 | 2466 ft | 13 kts | 289° |
| 2026-05-08 20:28 | -34.58769 | -68.40392 | 2467 ft | 14 kts | 289° |
| 2026-05-08 20:29 | -34.58737 | -68.40507 | 2465 ft | 15 kts | 289° |
| 2026-05-08 20:29 | -34.58705 | -68.40623 | 2468 ft | 14 kts | 288° |
| 2026-05-08 20:29 | -34.58673 | -68.40738 | 2471 ft | 14 kts | 288° |
| 2026-05-08 20:29 | -34.58641 | -68.40854 | 2474 ft | 14 kts | 288° |
| 2026-05-08 20:30 | -34.58610 | -68.40968 | 2478 ft | 14 kts | 288° |
| 2026-05-08 20:30 | -34.58579 | -68.41079 | 2481 ft | 14 kts | 288° |
| 2026-05-08 20:30 | -34.58547 | -68.41195 | 2482 ft | 15 kts | 288° |
| 2026-05-08 20:30 | -34.58512 | -68.41322 | 2484 ft | 16 kts | 288° |
| 2026-05-08 20:31 | -34.58498 | -68.41417 | 2486 ft | 2 kts | 300° |
| 2026-05-08 20:31 | -34.58492 | -68.41416 | 2486 ft | 1 kts | 356° |
| 2026-05-08 20:31 | -34.58488 | -68.41407 | 2486 ft | 1 kts | 66° |
| 2026-05-08 20:31 | -34.58493 | -68.41390 | 2486 ft | 5 kts | 108° |
| 2026-05-08 20:32 | -34.58555 | -68.41170 | 2482 ft | 67 kts | 108° |
| 2026-05-08 20:32 | -34.58790 | -68.40310 | 2465 ft | 143 kts | 107° |
| 2026-05-08 20:32 | -34.59007 | -68.38998 | 2785 ft | 178 kts | 85° |
| 2026-05-08 20:32 | -34.58944 | -68.37323 | 3246 ft | 225 kts | 95° |
| 2026-05-08 20:33 | -34.59154 | -68.35198 | 3801 ft | 282 kts | 96° |
| 2026-05-08 20:33 | -34.59352 | -68.32670 | 4359 ft | 317 kts | 94° |
| 2026-05-08 20:33 | -34.59462 | -68.29991 | 4924 ft | 321 kts | 92° |
| 2026-05-08 20:33 | -34.59567 | -68.27262 | 5513 ft | 323 kts | 92° |
| 2026-05-08 20:34 | -34.59701 | -68.24493 | 6049 ft | 335 kts | 92° |
| 2026-05-08 20:34 | -34.59850 | -68.21626 | 6555 ft | 339 kts | 92° |
| 2026-05-08 20:34 | -34.60133 | -68.15743 | 7581 ft | 358 kts | 95° |
| 2026-05-08 20:35 | -34.60278 | -68.12698 | 8097 ft | 364 kts | 94° |
| 2026-05-08 20:35 | -34.60425 | -68.09594 | 8616 ft | 370 kts | 95° |
| 2026-05-08 20:35 | -34.60574 | -68.06458 | 9149 ft | 375 kts | 96° |
| 2026-05-08 20:35 | -34.60724 | -68.03275 | 9685 ft | 381 kts | 96° |
| 2026-05-08 20:36 | -34.60875 | -68.00042 | 10193 ft | 387 kts | 96° |
| 2026-05-08 20:36 | -34.61025 | -67.96799 | 10669 ft | 392 kts | 96° |
| 2026-05-08 20:36 | -34.61180 | -67.93437 | 11187 ft | 397 kts | 97° |
| 2026-05-08 20:36 | -34.61333 | -67.90111 | 11688 ft | 402 kts | 97° |
| 2026-05-08 20:37 | -34.61489 | -67.86704 | 12203 ft | 408 kts | 97° |
| 2026-05-08 20:37 | -34.61645 | -67.83254 | 12723 ft | 412 kts | 97° |
| 2026-05-08 20:37 | -34.61802 | -67.79752 | 13262 ft | 417 kts | 98° |
| 2026-05-08 20:37 | -34.61961 | -67.76211 | 13796 ft | 423 kts | 98° |
| 2026-05-08 20:38 | -34.62120 | -67.72617 | 14278 ft | 427 kts | 98° |
| 2026-05-08 20:38 | -34.62279 | -67.69009 | 14752 ft | 430 kts | 98° |
| 2026-05-08 20:38 | -34.62438 | -67.65367 | 15260 ft | 432 kts | 99° |
| 2026-05-08 20:38 | -34.62598 | -67.61714 | 15791 ft | 436 kts | 99° |
| 2026-05-08 20:39 | -34.62759 | -67.58010 | 16301 ft | 440 kts | 99° |
| 2026-05-08 20:39 | -34.62918 | -67.54280 | 16824 ft | 443 kts | 99° |
| 2026-05-08 20:39 | -34.63076 | -67.50551 | 17357 ft | 442 kts | 99° |
| 2026-05-08 20:39 | -34.63232 | -67.46850 | 17882 ft | 446 kts | 99° |
| 2026-05-08 20:40 | -34.63392 | -67.43085 | 18406 ft | 449 kts | 99° |
| 2026-05-08 20:40 | -34.63552 | -67.39280 | 18885 ft | 452 kts | 99° |
| 2026-05-08 20:40 | -34.63709 | -67.35464 | 19367 ft | 455 kts | 99° |
| 2026-05-08 20:40 | -34.63867 | -67.31607 | 19853 ft | 458 kts | 99° |
| 2026-05-08 20:41 | -34.64025 | -67.27724 | 20350 ft | 461 kts | 99° |
| 2026-05-08 20:41 | -34.64184 | -67.23816 | 20851 ft | 464 kts | 99° |
| 2026-05-08 20:41 | -34.64342 | -67.19880 | 21388 ft | 467 kts | 99° |
| 2026-05-08 20:41 | -34.64497 | -67.15983 | 21891 ft | 470 kts | 99° |
| 2026-05-08 20:42 | -34.64653 | -67.12007 | 22422 ft | 473 kts | 99° |
| 2026-05-08 20:42 | -34.64810 | -67.07996 | 22961 ft | 476 kts | 99° |
| 2026-05-08 20:42 | -34.64966 | -67.03978 | 23515 ft | 478 kts | 99° |
| 2026-05-08 20:42 | -34.65122 | -66.99928 | 23989 ft | 480 kts | 99° |
| 2026-05-08 20:43 | -34.65277 | -66.95862 | 24451 ft | 482 kts | 99° |
| 2026-05-08 20:43 | -34.65430 | -66.91795 | 24919 ft | 483 kts | 99° |
| 2026-05-08 20:43 | -34.65584 | -66.87707 | 25430 ft | 484 kts | 98° |
| 2026-05-08 20:43 | -34.65735 | -66.83625 | 25915 ft | 485 kts | 98° |
| 2026-05-08 20:44 | -34.65886 | -66.79514 | 26419 ft | 485 kts | 98° |
| 2026-05-08 20:44 | -34.66035 | -66.75429 | 26920 ft | 484 kts | 98° |
| 2026-05-08 20:44 | -34.66181 | -66.71389 | 27422 ft | 484 kts | 98° |
| 2026-05-08 20:44 | -34.66329 | -66.67260 | 27944 ft | 483 kts | 98° |
| 2026-05-08 20:45 | -34.66473 | -66.63193 | 28478 ft | 482 kts | 98° |
| 2026-05-08 20:45 | -34.66568 | -66.60486 | 28867 ft | 481 kts | 98° |
| 2026-05-08 20:45 | -34.66756 | -66.55123 | 29615 ft | 479 kts | 98° |
| 2026-05-08 20:45 | -34.66894 | -66.51089 | 30157 ft | 478 kts | 98° |
| 2026-05-08 20:46 | -34.67031 | -66.47059 | 30624 ft | 475 kts | 98° |
| 2026-05-08 20:46 | -34.67168 | -66.43036 | 31106 ft | 473 kts | 98° |
| 2026-05-08 20:46 | -34.67301 | -66.39060 | 31594 ft | 470 kts | 98° |
| 2026-05-08 20:46 | -34.67432 | -66.35092 | 32083 ft | 468 kts | 99° |
| 2026-05-08 20:47 | -34.67561 | -66.31162 | 32580 ft | 465 kts | 99° |
| 2026-05-08 20:47 | -34.67688 | -66.27247 | 33086 ft | 461 kts | 99° |
| 2026-05-08 20:47 | -34.67813 | -66.23380 | 33626 ft | 458 kts | 99° |
| 2026-05-08 20:47 | -34.67935 | -66.19524 | 34135 ft | 454 kts | 99° |
| 2026-05-08 20:48 | -34.68054 | -66.15760 | 34557 ft | 450 kts | 99° |
| 2026-05-08 20:48 | -34.68173 | -66.11967 | 34940 ft | 449 kts | 99° |
| 2026-05-08 20:48 | -34.68296 | -66.08150 | 35024 ft | 456 kts | 99° |
| 2026-05-08 20:49 | -34.68538 | -66.00275 | 35042 ft | 475 kts | 99° |
| 2026-05-08 20:49 | -34.68779 | -65.92106 | 35068 ft | 493 kts | 98° |
| 2026-05-08 20:50 | -34.69028 | -65.83616 | 35043 ft | 512 kts | 98° |
| 2026-05-08 20:50 | -34.69267 | -65.75000 | 35041 ft | 514 kts | 98° |
| 2026-05-08 20:51 | -34.69510 | -65.66332 | 35029 ft | 514 kts | 98° |
| 2026-05-08 20:51 | -34.69744 | -65.57638 | 35016 ft | 514 kts | 97° |
| 2026-05-08 20:52 | -34.69973 | -65.48930 | 35019 ft | 514 kts | 97° |
| 2026-05-08 20:52 | -34.70220 | -65.40239 | 35017 ft | 512 kts | 100° |
| 2026-05-08 20:53 | -34.71016 | -65.31654 | 35006 ft | 510 kts | 103° |
| 2026-05-08 20:53 | -34.71846 | -65.23148 | 34991 ft | 508 kts | 102° |
| 2026-05-08 20:54 | -34.72643 | -65.14623 | 34989 ft | 507 kts | 102° |
| 2026-05-08 20:54 | -34.73457 | -65.06105 | 34981 ft | 507 kts | 102° |
| 2026-05-08 20:55 | -34.74246 | -64.97592 | 34976 ft | 507 kts | 102° |
| 2026-05-08 20:55 | -34.75042 | -64.89072 | 34963 ft | 504 kts | 101° |
| 2026-05-08 20:56 | -34.75814 | -64.80668 | 34961 ft | 502 kts | 101° |
| 2026-05-08 20:56 | -34.76589 | -64.72220 | 34954 ft | 502 kts | 101° |
| 2026-05-08 20:57 | -34.77355 | -64.63767 | 34949 ft | 503 kts | 101° |
| 2026-05-08 20:57 | -34.78000 | -64.56726 | 34935 ft | 503 kts | 101° |
| 2026-05-08 20:58 | -34.78772 | -64.48272 | 34925 ft | 503 kts | 101° |
| 2026-05-08 20:58 | -34.79658 | -64.38432 | 34924 ft | 503 kts | 101° |
| 2026-05-08 20:59 | -34.80292 | -64.31356 | 34916 ft | 500 kts | 101° |
| 2026-05-08 20:59 | -34.81040 | -64.22941 | 34908 ft | 500 kts | 101° |
| 2026-05-08 21:00 | -34.81778 | -64.14571 | 34908 ft | 500 kts | 101° |
| 2026-05-08 21:00 | -34.82514 | -64.06151 | 34894 ft | 500 kts | 101° |
| 2026-05-08 21:01 | -34.83240 | -63.97771 | 34888 ft | 495 kts | 100° |
| 2026-05-08 21:01 | -34.83957 | -63.89432 | 34888 ft | 494 kts | 100° |
| 2026-05-08 21:02 | -34.84665 | -63.81116 | 34890 ft | 494 kts | 100° |
| 2026-05-08 21:02 | -34.85369 | -63.72786 | 34885 ft | 494 kts | 99° |
| 2026-05-08 21:03 | -34.86062 | -63.64502 | 34880 ft | 491 kts | 99° |
| 2026-05-08 21:03 | -34.86750 | -63.56235 | 34871 ft | 490 kts | 99° |
| 2026-05-08 21:04 | -34.87430 | -63.48018 | 34865 ft | 490 kts | 99° |
| 2026-05-08 21:04 | -34.88115 | -63.39748 | 34871 ft | 491 kts | 98° |
| 2026-05-08 21:05 | -34.88792 | -63.31470 | 34863 ft | 490 kts | 98° |
| 2026-05-08 21:05 | -34.89464 | -63.23203 | 34865 ft | 490 kts | 98° |
| 2026-05-08 21:06 | -34.90129 | -63.14934 | 34862 ft | 490 kts | 98° |
| 2026-05-08 21:06 | -34.90791 | -63.06644 | 34857 ft | 492 kts | 98° |
| 2026-05-08 21:07 | -34.91443 | -62.98392 | 34860 ft | 492 kts | 98° |
| 2026-05-08 21:07 | -34.92096 | -62.90082 | 34859 ft | 492 kts | 98° |
| 2026-05-08 21:08 | -34.92742 | -62.81768 | 34860 ft | 493 kts | 97° |
| 2026-05-08 21:08 | -34.93383 | -62.73445 | 34851 ft | 493 kts | 97° |
| 2026-05-08 21:09 | -34.94016 | -62.65159 | 34852 ft | 493 kts | 97° |
| 2026-05-08 21:09 | -34.94637 | -62.56838 | 34848 ft | 493 kts | 97° |
| 2026-05-08 21:10 | -34.95254 | -62.48523 | 34852 ft | 492 kts | 97° |
| 2026-05-08 21:10 | -34.95864 | -62.40215 | 34846 ft | 492 kts | 97° |
| 2026-05-08 21:11 | -34.96469 | -62.31892 | 34844 ft | 492 kts | 97° |
| 2026-05-08 21:11 | -34.96804 | -62.23567 | 34843 ft | 492 kts | 94° |
| 2026-05-08 21:12 | -34.97095 | -62.15214 | 34839 ft | 493 kts | 93° |
| 2026-05-08 21:12 | -34.97359 | -62.06883 | 34841 ft | 493 kts | 93° |
| 2026-05-08 21:13 | -34.97629 | -61.98525 | 34837 ft | 494 kts | 94° |
| 2026-05-08 21:13 | -34.97888 | -61.90165 | 34828 ft | 493 kts | 93° |
| 2026-05-08 21:14 | -34.98144 | -61.81806 | 34833 ft | 493 kts | 93° |
| 2026-05-08 21:14 | -34.98390 | -61.73500 | 34828 ft | 493 kts | 93° |
| 2026-05-08 21:15 | -34.98636 | -61.65136 | 34829 ft | 493 kts | 93° |
| 2026-05-08 21:15 | -34.98873 | -61.56744 | 34395 ft | 493 kts | 93° |
| 2026-05-08 21:15 | -34.98986 | -61.52580 | 34049 ft | 490 kts | 93° |
| 2026-05-08 21:16 | -34.99094 | -61.48428 | 33677 ft | 487 kts | 92° |
| 2026-05-08 21:16 | -34.99201 | -61.44305 | 33208 ft | 483 kts | 92° |
| 2026-05-08 21:16 | -34.99308 | -61.40227 | 32754 ft | 480 kts | 92° |
| 2026-05-08 21:16 | -34.99413 | -61.36165 | 32303 ft | 476 kts | 92° |
| 2026-05-08 21:17 | -34.99513 | -61.32189 | 31855 ft | 473 kts | 92° |
| 2026-05-08 21:17 | -34.99613 | -61.28151 | 31419 ft | 469 kts | 92° |
| 2026-05-08 21:17 | -34.99710 | -61.24200 | 30995 ft | 465 kts | 92° |
| 2026-05-08 21:17 | -34.99805 | -61.20316 | 30579 ft | 462 kts | 92° |
| 2026-05-08 21:18 | -34.99898 | -61.16423 | 30167 ft | 458 kts | 92° |
| 2026-05-08 21:18 | -34.99989 | -61.12547 | 29734 ft | 455 kts | 91° |
| 2026-05-08 21:18 | -35.00078 | -61.08703 | 29255 ft | 452 kts | 92° |
| 2026-05-08 21:18 | -35.00166 | -61.04877 | 28791 ft | 449 kts | 92° |
| 2026-05-08 21:19 | -35.00252 | -61.01074 | 28307 ft | 446 kts | 92° |
| 2026-05-08 21:19 | -35.00337 | -60.97308 | 27857 ft | 443 kts | 92° |
| 2026-05-08 21:19 | -35.00419 | -60.93566 | 27411 ft | 441 kts | 92° |
| 2026-05-08 21:19 | -35.00500 | -60.89833 | 26967 ft | 438 kts | 92° |
| 2026-05-08 21:20 | -35.00580 | -60.86119 | 26524 ft | 436 kts | 92° |
| 2026-05-08 21:20 | -35.00645 | -60.83034 | 26168 ft | 435 kts | 92° |
| 2026-05-08 21:20 | -35.00720 | -60.79448 | 25748 ft | 433 kts | 92° |
| 2026-05-08 21:20 | -35.00796 | -60.75789 | 25331 ft | 431 kts | 93° |
| 2026-05-08 21:21 | -35.00870 | -60.72133 | 24929 ft | 429 kts | 93° |
| 2026-05-08 21:21 | -35.00942 | -60.68510 | 24523 ft | 427 kts | 94° |
| 2026-05-08 21:21 | -35.01013 | -60.64890 | 24115 ft | 425 kts | 94° |
| 2026-05-08 21:21 | -35.01083 | -60.61284 | 23723 ft | 423 kts | 94° |
| 2026-05-08 21:22 | -35.01152 | -60.57692 | 23324 ft | 422 kts | 94° |
| 2026-05-08 21:22 | -35.01218 | -60.54181 | 22861 ft | 416 kts | 94° |
| 2026-05-08 21:22 | -35.01285 | -60.50596 | 22392 ft | 417 kts | 94° |
| 2026-05-08 21:22 | -35.01349 | -60.47113 | 21948 ft | 416 kts | 94° |
| 2026-05-08 21:23 | -35.01411 | -60.43588 | 21497 ft | 414 kts | 94° |
| 2026-05-08 21:23 | -35.01472 | -60.40092 | 21054 ft | 411 kts | 94° |
| 2026-05-08 21:23 | -35.01533 | -60.36615 | 20626 ft | 409 kts | 94° |
| 2026-05-08 21:23 | -35.01593 | -60.33149 | 20187 ft | 407 kts | 94° |
| 2026-05-08 21:24 | -35.01650 | -60.29705 | 19768 ft | 405 kts | 94° |
| 2026-05-08 21:24 | -35.01707 | -60.26280 | 19358 ft | 403 kts | 94° |
| 2026-05-08 21:24 | -35.01763 | -60.22842 | 18964 ft | 410 kts | 94° |
| 2026-05-08 21:24 | -35.01824 | -60.19279 | 18569 ft | 425 kts | 94° |
| 2026-05-08 21:25 | -35.01877 | -60.15680 | 18169 ft | 422 kts | 94° |
| 2026-05-08 21:25 | -35.01928 | -60.12153 | 17753 ft | 419 kts | 94° |
| 2026-05-08 21:25 | -35.01983 | -60.08611 | 17303 ft | 417 kts | 94° |
| 2026-05-08 21:25 | -35.02037 | -60.05083 | 16849 ft | 414 kts | 94° |
| 2026-05-08 21:26 | -35.02087 | -60.01594 | 16410 ft | 410 kts | 94° |
| 2026-05-08 21:26 | -35.02135 | -59.98118 | 15974 ft | 407 kts | 94° |
| 2026-05-08 21:26 | -35.02183 | -59.94683 | 15781 ft | 403 kts | 94° |
| 2026-05-08 21:26 | -35.02231 | -59.91246 | 15785 ft | 405 kts | 94° |
| 2026-05-08 21:27 | -35.02277 | -59.87812 | 15785 ft | 405 kts | 93° |
| 2026-05-08 21:27 | -35.02320 | -59.84400 | 15779 ft | 401 kts | 93° |
| 2026-05-08 21:27 | -35.02364 | -59.80994 | 15777 ft | 401 kts | 93° |
| 2026-05-08 21:27 | -35.02408 | -59.77601 | 15777 ft | 400 kts | 93° |
| 2026-05-08 21:28 | -35.02450 | -59.74197 | 15765 ft | 401 kts | 93° |
| 2026-05-08 21:28 | -35.02246 | -59.70816 | 15483 ft | 402 kts | 76° |
| 2026-05-08 21:28 | -35.01077 | -59.67784 | 15143 ft | 400 kts | 55° |
| 2026-05-08 21:28 | -34.99331 | -59.65111 | 14799 ft | 397 kts | 47° |
| 2026-05-08 21:29 | -34.97528 | -59.62628 | 14459 ft | 394 kts | 48° |
| 2026-05-08 21:29 | -34.95805 | -59.59993 | 14125 ft | 392 kts | 54° |
| 2026-05-08 21:29 | -34.94411 | -59.57200 | 13807 ft | 388 kts | 60° |
| 2026-05-08 21:29 | -34.93163 | -59.54292 | 13457 ft | 386 kts | 62° |
| 2026-05-08 21:30 | -34.91900 | -59.51432 | 13074 ft | 382 kts | 59° |
| 2026-05-08 21:30 | -34.90509 | -59.48663 | 12705 ft | 380 kts | 57° |
| 2026-05-08 21:30 | -34.89115 | -59.45939 | 12321 ft | 378 kts | 58° |
| 2026-05-08 21:30 | -34.87783 | -59.43185 | 11970 ft | 376 kts | 59° |
| 2026-05-08 21:31 | -34.86480 | -59.40440 | 11605 ft | 374 kts | 58° |
| 2026-05-08 21:31 | -34.85155 | -59.37720 | 11237 ft | 371 kts | 58° |
| 2026-05-08 21:31 | -34.83826 | -59.35029 | 10882 ft | 369 kts | 58° |
| 2026-05-08 21:31 | -34.82516 | -59.32356 | 10545 ft | 367 kts | 58° |
| 2026-05-08 21:32 | -34.81234 | -59.29721 | 10188 ft | 364 kts | 58° |
| 2026-05-08 21:32 | -34.79947 | -59.27082 | 9859 ft | 362 kts | 58° |
| 2026-05-08 21:32 | -34.78656 | -59.24451 | 9493 ft | 360 kts | 58° |
| 2026-05-08 21:32 | -34.77377 | -59.21845 | 9104 ft | 358 kts | 58° |
| 2026-05-08 21:33 | -34.76079 | -59.19199 | 8751 ft | 374 kts | 58° |
| 2026-05-08 21:33 | -34.74767 | -59.16523 | 8378 ft | 362 kts | 59° |
| 2026-05-08 21:33 | -34.73487 | -59.13913 | 7992 ft | 357 kts | 59° |
| 2026-05-08 21:33 | -34.72215 | -59.11328 | 7641 ft | 354 kts | 59° |
| 2026-05-08 21:34 | -34.70955 | -59.08767 | 7279 ft | 353 kts | 59° |
| 2026-05-08 21:34 | -34.69701 | -59.06217 | 6911 ft | 351 kts | 59° |
| 2026-05-08 21:34 | -34.68445 | -59.03667 | 6578 ft | 351 kts | 59° |
| 2026-05-08 21:34 | -34.67195 | -59.01130 | 6222 ft | 350 kts | 59° |
| 2026-05-08 21:35 | -34.65945 | -58.98594 | 5851 ft | 349 kts | 59° |
| 2026-05-08 21:35 | -34.64701 | -58.96072 | 5496 ft | 348 kts | 59° |
| 2026-05-08 21:35 | -34.63455 | -58.93551 | 5132 ft | 347 kts | 59° |
| 2026-05-08 21:35 | -34.62215 | -58.91042 | 4804 ft | 345 kts | 58° |
| 2026-05-08 21:36 | -34.60980 | -58.88546 | 4767 ft | 348 kts | 58° |
| 2026-05-08 21:36 | -34.59736 | -58.86033 | 4770 ft | 347 kts | 58° |
| 2026-05-08 21:36 | -34.58489 | -58.83514 | 4780 ft | 348 kts | 58° |
| 2026-05-08 21:36 | -34.57285 | -58.80983 | 4751 ft | 344 kts | 65° |
| 2026-05-08 21:37 | -34.56808 | -58.78249 | 4740 ft | 321 kts | 93° |
| 2026-05-08 21:37 | -34.57176 | -58.75735 | 4735 ft | 299 kts | 111° |
| 2026-05-08 21:37 | -34.57843 | -58.73315 | 4739 ft | 298 kts | 113° |
| 2026-05-08 21:37 | -34.58522 | -58.70971 | 4740 ft | 297 kts | 113° |
| 2026-05-08 21:38 | -34.59185 | -58.68596 | 4740 ft | 298 kts | 112° |
| 2026-05-08 21:38 | -34.59835 | -58.66210 | 4559 ft | 298 kts | 112° |
| 2026-05-08 21:38 | -34.60486 | -58.63835 | 4283 ft | 296 kts | 112° |
| 2026-05-08 21:38 | -34.61142 | -58.61468 | 4018 ft | 295 kts | 112° |
| 2026-05-08 21:39 | -34.61780 | -58.59119 | 3905 ft | 290 kts | 111° |
| 2026-05-08 21:39 | -34.62412 | -58.56732 | 3757 ft | 299 kts | 111° |
| 2026-05-08 21:39 | -34.63038 | -58.54361 | 3497 ft | 292 kts | 111° |
| 2026-05-08 21:39 | -34.63658 | -58.52036 | 3230 ft | 286 kts | 111° |
| 2026-05-08 21:40 | -34.64270 | -58.49747 | 2969 ft | 284 kts | 111° |
| 2026-05-08 21:40 | -34.64878 | -58.47467 | 2692 ft | 281 kts | 111° |
| 2026-05-08 21:40 | -34.65470 | -58.45234 | 2502 ft | 273 kts | 111° |
| 2026-05-08 21:41 | -34.66608 | -58.40947 | 2496 ft | 264 kts | 111° |
| 2026-05-08 21:41 | -34.67164 | -58.38854 | 2490 ft | 263 kts | 111° |
| 2026-05-08 21:41 | -34.67725 | -58.36740 | 2490 ft | 264 kts | 111° |
| 2026-05-08 21:41 | -34.68288 | -58.34615 | 2487 ft | 264 kts | 111° |
| 2026-05-08 21:42 | -34.68843 | -58.32512 | 2488 ft | 258 kts | 110° |
| 2026-05-08 21:42 | -34.69387 | -58.30450 | 2487 ft | 255 kts | 111° |
| 2026-05-08 21:42 | -34.69929 | -58.28402 | 2488 ft | 255 kts | 110° |
| 2026-05-08 21:42 | -34.70021 | -58.26258 | 2245 ft | 260 kts | 73° |
| 2026-05-08 21:43 | -34.69065 | -58.24467 | 2027 ft | 250 kts | 32° |
| 2026-05-08 21:43 | -34.67522 | -58.23706 | 2003 ft | 236 kts | 358° |
| 2026-05-08 21:43 | -34.65980 | -58.23986 | 1907 ft | 219 kts | 323° |
| 2026-05-08 21:43 | -34.64949 | -58.25168 | 1722 ft | 190 kts | 297° |
| 2026-05-08 21:44 | -34.64316 | -58.26395 | 1703 ft | 152 kts | 294° |
| 2026-05-08 21:44 | -34.63758 | -58.27478 | 1717 ft | 164 kts | 295° |
| 2026-05-08 21:44 | -34.63096 | -58.28714 | 1710 ft | 176 kts | 297° |
| 2026-05-08 21:44 | -34.62451 | -58.29850 | 1650 ft | 153 kts | 297° |
| 2026-05-08 21:45 | -34.61904 | -58.30818 | 1464 ft | 128 kts | 296° |
| 2026-05-08 21:45 | -34.61409 | -58.31723 | 1294 ft | 134 kts | 296° |
| 2026-05-08 21:45 | -34.60882 | -58.32677 | 1126 ft | 134 kts | 298° |
| 2026-05-08 21:45 | -34.60357 | -58.33620 | 1003 ft | 129 kts | 298° |
| 2026-05-08 21:46 | -34.59901 | -58.34429 | 624 ft | 106 kts | 298° |
| 2026-05-08 21:46 | -34.59615 | -58.34917 | 567 ft | 112 kts | 298° |
| 2026-05-08 21:46 | -34.59157 | -58.35817 | 657 ft | 138 kts | 298° |
| 2026-05-08 21:46 | -34.58643 | -58.36770 | 735 ft | 120 kts | 297° |
| 2026-05-08 21:47 | -34.58159 | -58.37603 | 685 ft | 129 kts | 301° |
| 2026-05-08 21:47 | -34.57623 | -58.38527 | 540 ft | 136 kts | 298° |
| 2026-05-08 21:47 | -34.57068 | -58.39542 | 367 ft | 154 kts | 302° |
| 2026-05-08 21:47 | -34.56472 | -58.40585 | 93 ft | 147 kts | 300° |
| 2026-05-08 21:48 | -34.55989 | -58.41482 | 29 ft | 97 kts | 303° |
| 2026-05-08 21:48 | -34.55704 | -58.41972 | 27 ft | 52 kts | 302° |
| 2026-05-08 21:48 | -34.55539 | -58.42273 | 28 ft | 37 kts | 304° |
| 2026-05-08 21:48 | -34.55413 | -58.42489 | 27 ft | 17 kts | 316° |
| 2026-05-08 21:49 | -34.55357 | -58.42487 | 26 ft | 8 kts | 28° |
| 2026-05-08 21:49 | -34.55352 | -58.42473 | 26 ft | 3 kts | 95° |
| 2026-05-08 21:49 | -34.55367 | -58.42390 | 26 ft | 15 kts | 108° |
| 2026-05-08 21:49 | -34.55431 | -58.42276 | 26 ft | 19 kts | 126° |
| 2026-05-08 21:50 | -34.55514 | -58.42139 | 26 ft | 22 kts | 127° |
| 2026-05-08 21:50 | -34.55606 | -58.41989 | 26 ft | 18 kts | 122° |
| 2026-05-08 21:50 | -34.55675 | -58.41864 | 26 ft | 18 kts | 124° |
| 2026-05-08 21:50 | -34.55694 | -58.41832 | 26 ft | 2 kts | 124° |
| 2026-05-08 21:51 | -34.55712 | -58.41799 | 26 ft | 7 kts | 124° |
| 2026-05-08 21:51 | -34.55745 | -58.41734 | 26 ft | 11 kts | 116° |
| 2026-05-08 21:51 | -34.55752 | -58.41716 | 26 ft | 2 kts | 115° |
| 2026-05-08 21:51 | -34.55764 | -58.41684 | 26 ft | 6 kts | 115° |
| 2026-05-08 21:52 | -34.55774 | -58.41659 | 26 ft | 0 kts | 115° |
| 2026-05-08 21:52 | -34.55778 | -58.41649 | 26 ft | 3 kts | 115° |
| 2026-05-08 21:52 | -34.55786 | -58.41628 | 26 ft | 0 kts | 115° |
| 2026-05-08 21:52 | -34.55794 | -58.41610 | 26 ft | 4 kts | 116° |
| 2026-05-08 21:53 | -34.55815 | -58.41561 | 26 ft | 9 kts | 118° |
| 2026-05-08 21:53 | -34.55850 | -58.41481 | 26 ft | 13 kts | 118° |
| 2026-05-08 21:53 | -34.55890 | -58.41389 | 26 ft | 10 kts | 118° |
| 2026-05-08 21:53 | -34.55902 | -58.41315 | 26 ft | 9 kts | 57° |
| 2026-05-08 21:54 | -34.55841 | -58.41287 | 26 ft | 10 kts | 343° |
| 2026-05-08 21:54 | -34.55813 | -58.41310 | 26 ft | 2 kts | 333° |
| 2026-05-08 21:54 | -34.55805 | -58.41309 | 26 ft | 0 kts | 11° |
| 2026-05-08 21:54 | -34.55797 | -58.41304 | 26 ft | 2 kts | 28° |
| 2026-05-08 21:55 | -34.55779 | -58.41288 | 26 ft | 0 kts | 35° |